Yakutsk Airport
UEEE : now visible

Aeroporto :











RITROVATECI SU...

 
LOGIN :

Iscrizione | Disclaimer

   EN    FR    IT 

 









Sommario :    VFR   VFR Marginale   IFR   IFR Intensivo   IFR Molto Intensivo
Visibilità : 
Base nubi : 
>= 8 km
>= 3000ft
5 / 8 km
1000 / 3000 ft
1500m / 5 km
500 / 1000 ft
800 / 1500m
200 / 500 ft
< 800m
< 200 ft
Simboli :   Temporali  Nebbia  Neve Forte  Precipitazioni Forti  Vento > 20 kt






- Altitudine del aeroporto : 325 ft
- Codice IATA : YKS


UEEE - Yakutsk

ULTIMO METAR :
  • 230130Z 00000MPS 9999 -SN BKN040 M27/M30 Q1017 R23L/490145 NOSIG RMK QFE754

METARs OBSOLETI :
  • 230100Z 00000MPS 9999 -SN BKN040 M28/M30 Q1017 R23L/490145 NOSIG RMK QFE754
  • 230030Z 05001MPS 9999 -SN BKN040 M28/M31 Q1017 R23L/490145 NOSIG RMK QFE754
  • 230000Z 01001MPS 9999 -SN BKN040 M28/M31 Q1017 R23L/490145 NOSIG RMK QFE754
  • 222330Z 03002MPS 9999 -SN SCT040 M28/M31 Q1017 R23L/490145 NOSIG RMK QFE754
  • 222300Z 02001MPS 9999 -SN SCT040 M28/M31 Q1017 R23L/490145 NOSIG RMK QFE754

TAF TAF UEEE
Valido dal 23 a 00 ore il 24 a 06 ore UTC


222300Z 2300/2406 01003MPS 9999 -SN SCT030 OVC070
TEMPO 2300/2302 0500 FZFG VV003
TEMPO 2302/2309 3200 BR SCT011 BKN020 OVC070



MetMap, La meteo Aeronautica in un colpo d'occhio ! - Copyright ORBIFLY Dicembre 2007 - Disclaimer

ORBIFLY MET'MAP TEAM :

Programmazione e sviluppo : Alexandra Zaïnal
Concezione e sviluppo : Baudouin d'Aumeries
Co-Programmazione e sviluppo : Marc-Olivier Méhu
Supporto tecnico e logistico : Manuel Goepfert
Aiuto per la traduzione : Arnaldo La Scala

Contatto : metmap@orbifly.com




FONTI E CREDITI :

   NOAA       Earth
Advisory